Dutch Harbor, AK

11:35 PM AKDT on July 22, 2014 (GMT -0800)
Dutch Harbor (PADU) Elev 13 ft | 53.90 °N, 166.54 °W | Change Station

Current weather conditions updated 39 minutes ago

Overcast
Overcast
54 °F
Feels Like 54 °F
N
15
Wind Variable Wind from SSW
Gusts 24 mph

Tomorrow is forecast to be Cooler than today. Light rain and fog.

Today
High -- | Low -- °F
--% Chance of Precip.
Yesterday
High -- | Low -- °F
Precip. -- in
7:07 AM 11:19 PM
Waning Crescent, 12% visible
Pressure 30.18 in
Visibility 10.0 miles
Clouds Overcast 3100 ft
Dew Point 48 °F
Humidity 80%
Rainfall 0.00 in
Snow Depth Not available.
UV 0 out of 12
Pollen Not available.
Air Quality Not available.
Flu Activity Not available.
METAR PADU 230656Z AUTO 21013G21KT 10SM OVC031 12/09 A3016 RMK AO2 SLP218 T01220089

More Conditions Fewer Conditions

Pressure 30.18 in
Visibility 10.0 miles
Clouds Overcast 3100 ft
Dew Point 48 °F
Humidity 80%
Rainfall 0.00 in
Snow Depth Not available.
UV 0 out of 12
Pollen Not available.
Air Quality Not available.
Flu Activity Not available.
METAR PADU 230656Z AUTO 21013G21KT 10SM OVC031 12/09 A3016 RMK AO2 SLP218 T01220089

More Conditions Fewer Conditions

10-Day Weather Forecast

Almanac

Astronomy

Jul. 22, 2014 Rise Set
Actual Time 7:07 AM AKDT 11:19 PM AKDT
Civil Twilight 6:21 AM AKDT 12:06 AM AKDT
Nautical Twilight 5:11 AM AKDT 1:14 AM AKDT
Astronomical Twilight 3:46 AM AKDT 2:41 AM AKDT
Moon 3:56 AM AKDT (7/22) 8:04 PM AKDT (7/22)
Length of Visible Light 17h 45m
Length of Day
16h 12m
Tomorrow will be 2m 58s shorter.
Waning Crescent, 12% of the Moon is Illuminated
Jul 23
Waning Crescent
Jul 26
New
Aug 3
First Quarter
Aug 10
Full
Aug 17
Last Quarter

Community

WunderPhotos

Upload Photos

1,736,527 photos uploaded!

Nearby

Snow Depth

Station Depth Elevation
Port Graham 0 in 300 ft
Mcneil Canyon 1 in 1320 ft
MF Bradley River 26 in 2300 ft
Nuka Glacier 137 in 1250 ft
Rocky Point 2 in 500 ft

Earthquake Activity

City Distance Mag. Time & Date
No recent earthquake activity has been reported nearby.
Minimum magnitude displayed is 2.5.

Coastal Water Temperatures

Place Temperature
No Stations Reporting

Nearby Weather Stations

There are no personal weather stations in this area.